sensor_id;sensor_type;location;lat;lon;timestamp;temperature;humidity
20459;DHT22;10388;52.314;7.938;2023-09-07T03:31:22;15.70;99.90
20459;DHT22;10388;52.314;7.938;2023-09-07T03:33:52;15.70;99.90
20459;DHT22;10388;52.314;7.938;2023-09-07T03:36:23;15.60;99.90
20459;DHT22;10388;52.314;7.938;2023-09-07T03:38:53;15.60;99.90
20459;DHT22;10388;52.314;7.938;2023-09-07T03:41:24;15.60;99.90
20459;DHT22;10388;52.314;7.938;2023-09-07T03:44:00;15.70;99.90
20459;DHT22;10388;52.314;7.938;2023-09-07T03:46:31;15.70;99.90
20459;DHT22;10388;52.314;7.938;2023-09-07T03:49:01;15.70;99.90
20459;DHT22;10388;52.314;7.938;2023-09-07T03:51:32;15.60;99.90
20459;DHT22;10388;52.314;7.938;2023-09-07T03:54:02;15.90;99.90
20459;DHT22;10388;52.314;7.938;2023-09-07T03:56:33;15.90;99.90
20459;DHT22;10388;52.314;7.938;2023-09-07T03:59:03;16.00;99.90
20459;DHT22;10388;52.314;7.938;2023-09-07T04:01:34;16.10;99.90
20459;DHT22;10388;52.314;7.938;2023-09-07T04:04:05;16.20;99.90
20459;DHT22;10388;52.314;7.938;2023-09-07T04:06:35;16.30;99.90
20459;DHT22;10388;52.314;7.938;2023-09-07T04:09:06;16.20;99.90
20459;DHT22;10388;52.314;7.938;2023-09-07T04:11:36;16.10;99.90
20459;DHT22;10388;52.314;7.938;2023-09-07T04:14:07;16.00;99.90
20459;DHT22;10388;52.314;7.938;2023-09-07T04:16:37;16.10;99.90
20459;DHT22;10388;52.314;7.938;2023-09-07T04:19:08;16.10;99.90
20459;DHT22;10388;52.314;7.938;2023-09-07T04:21:39;16.00;99.90
20459;DHT22;10388;52.314;7.938;2023-09-07T04:24:10;15.90;99.90
20459;DHT22;10388;52.314;7.938;2023-09-07T04:26:40;15.80;99.90
20459;DHT22;10388;52.314;7.938;2023-09-07T04:29:11;15.80;99.90
20459;DHT22;10388;52.314;7.938;2023-09-07T04:31:43;15.70;99.90
20459;DHT22;10388;52.314;7.938;2023-09-07T04:34:13;15.60;99.90
20459;DHT22;10388;52.314;7.938;2023-09-07T04:36:44;15.50;99.90
20459;DHT22;10388;52.314;7.938;2023-09-07T04:39:14;15.50;99.90
20459;DHT22;10388;52.314;7.938;2023-09-07T04:41:45;15.50;99.90
20459;DHT22;10388;52.314;7.938;2023-09-07T04:44:16;15.40;99.90
20459;DHT22;10388;52.314;7.938;2023-09-07T04:46:46;15.40;99.90
20459;DHT22;10388;52.314;7.938;2023-09-07T04:49:17;15.30;99.90
20459;DHT22;10388;52.314;7.938;2023-09-07T04:51:47;15.30;99.90
20459;DHT22;10388;52.314;7.938;2023-09-07T04:54:17;15.20;99.90
20459;DHT22;10388;52.314;7.938;2023-09-07T04:56:48;15.20;99.90
20459;DHT22;10388;52.314;7.938;2023-09-07T04:59:19;15.20;99.90
20459;DHT22;10388;52.314;7.938;2023-09-07T05:01:49;15.20;99.90
20459;DHT22;10388;52.314;7.938;2023-09-07T05:04:20;15.20;99.90
20459;DHT22;10388;52.314;7.938;2023-09-07T05:06:50;15.20;99.90
20459;DHT22;10388;52.314;7.938;2023-09-07T05:09:21;15.20;99.90
20459;DHT22;10388;52.314;7.938;2023-09-07T05:11:51;15.10;99.90
20459;DHT22;10388;52.314;7.938;2023-09-07T05:14:23;15.10;99.90
20459;DHT22;10388;52.314;7.938;2023-09-07T05:16:54;15.10;99.90
20459;DHT22;10388;52.314;7.938;2023-09-07T05:19:27;15.10;99.90
20459;DHT22;10388;52.314;7.938;2023-09-07T05:21:57;15.20;99.90
20459;DHT22;10388;52.314;7.938;2023-09-07T05:24:28;15.30;99.90
20459;DHT22;10388;52.314;7.938;2023-09-07T05:26:58;15.40;99.90
20459;DHT22;10388;52.314;7.938;2023-09-07T05:29:29;15.30;99.90
20459;DHT22;10388;52.314;7.938;2023-09-07T05:31:59;15.30;99.90
20459;DHT22;10388;52.314;7.938;2023-09-07T05:34:30;15.40;99.90
20459;DHT22;10388;52.314;7.938;2023-09-07T05:37:01;15.40;99.90
20459;DHT22;10388;52.314;7.938;2023-09-07T05:39:31;15.40;99.90
20459;DHT22;10388;52.314;7.938;2023-09-07T05:42:02;15.40;99.90
20459;DHT22;10388;52.314;7.938;2023-09-07T05:44:32;15.50;99.90
20459;DHT22;10388;52.314;7.938;2023-09-07T05:47:03;15.50;99.90
20459;DHT22;10388;52.314;7.938;2023-09-07T05:49:34;15.50;99.90
20459;DHT22;10388;52.314;7.938;2023-09-07T05:52:04;15.50;99.90
20459;DHT22;10388;52.314;7.938;2023-09-07T05:54:35;15.80;99.90
20459;DHT22;10388;52.314;7.938;2023-09-07T05:57:05;15.80;99.90
20459;DHT22;10388;52.314;7.938;2023-09-07T05:59:36;15.80;99.90
20459;DHT22;10388;52.314;7.938;2023-09-07T06:02:06;15.90;99.90
20459;DHT22;10388;52.314;7.938;2023-09-07T06:04:37;15.90;99.90
20459;DHT22;10388;52.314;7.938;2023-09-07T06:07:08;16.00;99.90
20459;DHT22;10388;52.314;7.938;2023-09-07T06:09:38;16.20;99.90
20459;DHT22;10388;52.314;7.938;2023-09-07T06:12:09;16.20;99.90
20459;DHT22;10388;52.314;7.938;2023-09-07T06:14:39;16.40;99.90
20459;DHT22;10388;52.314;7.938;2023-09-07T06:17:10;16.40;99.90
20459;DHT22;10388;52.314;7.938;2023-09-07T06:19:40;16.50;99.90
20459;DHT22;10388;52.314;7.938;2023-09-07T06:22:11;16.50;99.90
20459;DHT22;10388;52.314;7.938;2023-09-07T06:24:41;16.50;99.90
20459;DHT22;10388;52.314;7.938;2023-09-07T06:27:12;16.70;99.90
20459;DHT22;10388;52.314;7.938;2023-09-07T06:29:42;16.70;99.90
20459;DHT22;10388;52.314;7.938;2023-09-07T06:32:13;17.00;99.90
20459;DHT22;10388;52.314;7.938;2023-09-07T06:34:43;17.10;99.90
20459;DHT22;10388;52.314;7.938;2023-09-07T06:37:14;17.20;99.90
20459;DHT22;10388;52.314;7.938;2023-09-07T06:39:44;17.40;99.90
20459;DHT22;10388;52.314;7.938;2023-09-07T06:42:15;17.50;99.90
20459;DHT22;10388;52.314;7.938;2023-09-07T06:44:46;17.70;99.90
20459;DHT22;10388;52.314;7.938;2023-09-07T06:47:16;17.70;99.90
20459;DHT22;10388;52.314;7.938;2023-09-07T06:49:47;17.70;99.90
20459;DHT22;10388;52.314;7.938;2023-09-07T06:52:17;17.90;99.90
20459;DHT22;10388;52.314;7.938;2023-09-07T06:54:52;18.00;99.90
20459;DHT22;10388;52.314;7.938;2023-09-07T06:57:23;18.20;99.90
20459;DHT22;10388;52.314;7.938;2023-09-07T06:59:53;18.30;99.90
20459;DHT22;10388;52.314;7.938;2023-09-07T07:02:24;18.40;99.90
20459;DHT22;10388;52.314;7.938;2023-09-07T07:04:54;18.50;99.90
20459;DHT22;10388;52.314;7.938;2023-09-07T07:07:25;18.50;99.90
20459;DHT22;10388;52.314;7.938;2023-09-07T07:09:55;18.60;99.90
20459;DHT22;10388;52.314;7.938;2023-09-07T07:12:26;18.70;99.90
20459;DHT22;10388;52.314;7.938;2023-09-07T07:14:57;18.80;99.90
20459;DHT22;10388;52.314;7.938;2023-09-07T07:17:27;19.00;99.90
20459;DHT22;10388;52.314;7.938;2023-09-07T07:19:58;19.00;99.90
20459;DHT22;10388;52.314;7.938;2023-09-07T07:22:28;19.10;99.90
20459;DHT22;10388;52.314;7.938;2023-09-07T07:24:59;19.20;99.90
20459;DHT22;10388;52.314;7.938;2023-09-07T07:27:35;19.40;99.90
20459;DHT22;10388;52.314;7.938;2023-09-07T07:30:06;19.50;99.90
20459;DHT22;10388;52.314;7.938;2023-09-07T07:32:37;19.50;99.90
20459;DHT22;10388;52.314;7.938;2023-09-07T07:35:08;19.70;99.90
20459;DHT22;10388;52.314;7.938;2023-09-07T07:37:38;19.90;99.90
20459;DHT22;10388;52.314;7.938;2023-09-07T07:40:09;19.90;99.90
20459;DHT22;10388;52.314;7.938;2023-09-07T07:42:40;20.10;99.90
20459;DHT22;10388;52.314;7.938;2023-09-07T07:45:10;20.30;99.90
20459;DHT22;10388;52.314;7.938;2023-09-07T07:47:41;20.40;99.90
20459;DHT22;10388;52.314;7.938;2023-09-07T07:50:12;20.40;99.90
20459;DHT22;10388;52.314;7.938;2023-09-07T07:52:43;20.40;99.90
20459;DHT22;10388;52.314;7.938;2023-09-07T07:55:13;20.80;99.90
20459;DHT22;10388;52.314;7.938;2023-09-07T07:57:44;20.70;99.90
20459;DHT22;10388;52.314;7.938;2023-09-07T08:00:14;20.70;99.90
20459;DHT22;10388;52.314;7.938;2023-09-07T08:02:45;20.90;99.90
20459;DHT22;10388;52.314;7.938;2023-09-07T08:05:16;21.00;99.90
20459;DHT22;10388;52.314;7.938;2023-09-07T08:07:46;21.20;99.90
20459;DHT22;10388;52.314;7.938;2023-09-07T08:10:17;21.20;99.90
20459;DHT22;10388;52.314;7.938;2023-09-07T08:12:47;21.30;99.90
20459;DHT22;10388;52.314;7.938;2023-09-07T08:15:18;21.50;99.90
20459;DHT22;10388;52.314;7.938;2023-09-07T08:17:51;21.50;99.90
20459;DHT22;10388;52.314;7.938;2023-09-07T08:20:24;21.50;99.90
20459;DHT22;10388;52.314;7.938;2023-09-07T08:22:54;21.70;99.90
20459;DHT22;10388;52.314;7.938;2023-09-07T08:25:25;21.80;99.90
20459;DHT22;10388;52.314;7.938;2023-09-07T08:27:56;21.90;99.90
20459;DHT22;10388;52.314;7.938;2023-09-07T08:30:29;21.90;99.90
20459;DHT22;10388;52.314;7.938;2023-09-07T08:33:00;22.00;99.90
20459;DHT22;10388;52.314;7.938;2023-09-07T08:35:32;22.20;99.90
20459;DHT22;10388;52.314;7.938;2023-09-07T08:38:05;22.30;99.90
20459;DHT22;10388;52.314;7.938;2023-09-07T08:40:39;22.40;99.90
20459;DHT22;10388;52.314;7.938;2023-09-07T08:43:12;22.40;99.90
20459;DHT22;10388;52.314;7.938;2023-09-07T08:45:52;22.50;99.90
20459;DHT22;10388;52.314;7.938;2023-09-07T08:48:29;22.50;99.90
20459;DHT22;10388;52.314;7.938;2023-09-07T08:51:01;22.80;99.90
20459;DHT22;10388;52.314;7.938;2023-09-07T08:53:32;22.80;99.90
20459;DHT22;10388;52.314;7.938;2023-09-07T08:56:04;22.90;99.90
20459;DHT22;10388;52.314;7.938;2023-09-07T08:58:34;22.90;99.90
20459;DHT22;10388;52.314;7.938;2023-09-07T09:01:05;23.00;99.90
20459;DHT22;10388;52.314;7.938;2023-09-07T09:03:36;23.10;99.90
20459;DHT22;10388;52.314;7.938;2023-09-07T09:06:07;23.20;99.90
20459;DHT22;10388;52.314;7.938;2023-09-07T09:09:04;23.40;99.90
20459;DHT22;10388;52.314;7.938;2023-09-07T09:11:37;23.50;99.90
20459;DHT22;10388;52.314;7.938;2023-09-07T09:14:08;23.60;99.90
20459;DHT22;10388;52.314;7.938;2023-09-07T09:16:38;23.70;99.90
20459;DHT22;10388;52.314;7.938;2023-09-07T09:19:09;23.70;99.90
20459;DHT22;10388;52.314;7.938;2023-09-07T09:21:39;23.80;99.90
20459;DHT22;10388;52.314;7.938;2023-09-07T09:24:11;24.00;99.90
20459;DHT22;10388;52.314;7.938;2023-09-07T09:26:41;24.10;99.90
20459;DHT22;10388;52.314;7.938;2023-09-07T09:29:12;24.20;99.90
20459;DHT22;10388;52.314;7.938;2023-09-07T09:31:43;24.20;99.90
20459;DHT22;10388;52.314;7.938;2023-09-07T09:34:14;24.20;99.90
20459;DHT22;10388;52.314;7.938;2023-09-07T09:36:45;24.40;99.90
20459;DHT22;10388;52.314;7.938;2023-09-07T09:39:23;24.60;99.90
20459;DHT22;10388;52.314;7.938;2023-09-07T09:41:54;24.60;99.90
20459;DHT22;10388;52.314;7.938;2023-09-07T09:44:29;24.80;99.90
20459;DHT22;10388;52.314;7.938;2023-09-07T09:46:59;24.90;99.90
20459;DHT22;10388;52.314;7.938;2023-09-07T09:49:30;25.10;99.90
20459;DHT22;10388;52.314;7.938;2023-09-07T09:52:01;25.20;99.90
20459;DHT22;10388;52.314;7.938;2023-09-07T09:54:35;25.20;99.90
20459;DHT22;10388;52.314;7.938;2023-09-07T09:57:05;25.30;99.90
20459;DHT22;10388;52.314;7.938;2023-09-07T09:59:36;25.40;99.90
20459;DHT22;10388;52.314;7.938;2023-09-07T10:02:07;25.50;99.90
20459;DHT22;10388;52.314;7.938;2023-09-07T10:04:38;25.60;99.90
20459;DHT22;10388;52.314;7.938;2023-09-07T10:07:08;25.70;99.90
20459;DHT22;10388;52.314;7.938;2023-09-07T10:09:39;25.80;99.90
20459;DHT22;10388;52.314;7.938;2023-09-07T10:12:12;25.90;99.90
20459;DHT22;10388;52.314;7.938;2023-09-07T10:14:43;26.00;99.90
20459;DHT22;10388;52.314;7.938;2023-09-07T10:17:22;26.10;99.90
20459;DHT22;10388;52.314;7.938;2023-09-07T10:20:02;26.20;99.90
20459;DHT22;10388;52.314;7.938;2023-09-07T10:22:35;26.30;99.90
20459;DHT22;10388;52.314;7.938;2023-09-07T10:25:06;26.40;99.90
20459;DHT22;10388;52.314;7.938;2023-09-07T10:27:42;26.40;99.90
20459;DHT22;10388;52.314;7.938;2023-09-07T10:30:13;26.50;99.90
20459;DHT22;10388;52.314;7.938;2023-09-07T10:32:43;26.60;99.90
20459;DHT22;10388;52.314;7.938;2023-09-07T10:35:15;26.60;99.90
20459;DHT22;10388;52.314;7.938;2023-09-07T10:37:48;26.70;99.90
20459;DHT22;10388;52.314;7.938;2023-09-07T10:40:20;26.70;99.90
20459;DHT22;10388;52.314;7.938;2023-09-07T10:43:01;26.80;99.90
20459;DHT22;10388;52.314;7.938;2023-09-07T10:45:32;26.90;99.90
20459;DHT22;10388;52.314;7.938;2023-09-07T10:48:03;26.90;99.90
20459;DHT22;10388;52.314;7.938;2023-09-07T10:50:44;27.10;99.90
20459;DHT22;10388;52.314;7.938;2023-09-07T10:53:24;27.10;99.90
20459;DHT22;10388;52.314;7.938;2023-09-07T10:55:58;27.20;99.90
20459;DHT22;10388;52.314;7.938;2023-09-07T10:58:36;27.30;99.90
20459;DHT22;10388;52.314;7.938;2023-09-07T11:01:12;27.30;99.90
20459;DHT22;10388;52.314;7.938;2023-09-07T11:03:42;27.30;99.90
20459;DHT22;10388;52.314;7.938;2023-09-07T11:06:18;27.40;99.90
20459;DHT22;10388;52.314;7.938;2023-09-07T11:08:52;27.60;99.90
20459;DHT22;10388;52.314;7.938;2023-09-07T11:11:22;27.50;99.90
20459;DHT22;10388;52.314;7.938;2023-09-07T11:13:53;27.70;99.90
20459;DHT22;10388;52.314;7.938;2023-09-07T11:16:25;27.80;99.90
20459;DHT22;10388;52.314;7.938;2023-09-07T11:18:57;27.90;99.90
20459;DHT22;10388;52.314;7.938;2023-09-07T11:21:28;27.90;99.90
20459;DHT22;10388;52.314;7.938;2023-09-07T11:24:01;27.90;99.90
20459;DHT22;10388;52.314;7.938;2023-09-07T11:26:45;27.90;99.90
20459;DHT22;10388;52.314;7.938;2023-09-07T11:29:16;27.90;99.90
20459;DHT22;10388;52.314;7.938;2023-09-07T11:31:47;27.90;99.90
20459;DHT22;10388;52.314;7.938;2023-09-07T11:34:17;28.10;99.90
20459;DHT22;10388;52.314;7.938;2023-09-07T11:36:48;28.20;99.90
20459;DHT22;10388;52.314;7.938;2023-09-07T11:39:19;28.00;99.90
20459;DHT22;10388;52.314;7.938;2023-09-07T11:41:50;28.20;99.90
20459;DHT22;10388;52.314;7.938;2023-09-07T11:44:20;28.10;99.90
20459;DHT22;10388;52.314;7.938;2023-09-07T11:46:51;28.20;99.90
20459;DHT22;10388;52.314;7.938;2023-09-07T11:49:21;28.20;99.90
20459;DHT22;10388;52.314;7.938;2023-09-07T11:51:52;28.20;99.90
20459;DHT22;10388;52.314;7.938;2023-09-07T11:54:23;28.20;99.90
20459;DHT22;10388;52.314;7.938;2023-09-07T11:56:53;28.20;99.90
20459;DHT22;10388;52.314;7.938;2023-09-07T11:59:24;28.30;99.90
20459;DHT22;10388;52.314;7.938;2023-09-07T12:01:54;28.30;99.90
20459;DHT22;10388;52.314;7.938;2023-09-07T12:04:25;28.30;99.90
20459;DHT22;10388;52.314;7.938;2023-09-07T12:06:55;28.30;99.90
20459;DHT22;10388;52.314;7.938;2023-09-07T12:09:26;28.40;99.90
20459;DHT22;10388;52.314;7.938;2023-09-07T12:11:57;28.50;99.90
20459;DHT22;10388;52.314;7.938;2023-09-07T12:14:27;28.50;99.90
20459;DHT22;10388;52.314;7.938;2023-09-07T12:16:58;28.60;99.90
20459;DHT22;10388;52.314;7.938;2023-09-07T12:19:28;28.60;99.90
20459;DHT22;10388;52.314;7.938;2023-09-07T12:21:59;28.60;99.90
20459;DHT22;10388;52.314;7.938;2023-09-07T12:24:29;28.60;99.90
20459;DHT22;10388;52.314;7.938;2023-09-07T12:27:00;28.60;99.90
20459;DHT22;10388;52.314;7.938;2023-09-07T12:29:30;28.60;99.90
20459;DHT22;10388;52.314;7.938;2023-09-07T12:32:01;28.60;99.90
20459;DHT22;10388;52.314;7.938;2023-09-07T12:34:31;28.60;99.90
20459;DHT22;10388;52.314;7.938;2023-09-07T12:37:02;28.60;99.90
20459;DHT22;10388;52.314;7.938;2023-09-07T12:39:35;28.60;99.90
20459;DHT22;10388;52.314;7.938;2023-09-07T12:42:06;28.60;99.90
20459;DHT22;10388;52.314;7.938;2023-09-07T12:44:36;28.60;99.90
20459;DHT22;10388;52.314;7.938;2023-09-07T12:47:07;28.60;99.90
20459;DHT22;10388;52.314;7.938;2023-09-07T12:49:37;28.60;99.90
20459;DHT22;10388;52.314;7.938;2023-09-07T12:52:08;28.70;99.90
20459;DHT22;10388;52.314;7.938;2023-09-07T12:54:40;28.80;99.90
20459;DHT22;10388;52.314;7.938;2023-09-07T12:57:10;28.70;99.90
20459;DHT22;10388;52.314;7.938;2023-09-07T12:59:40;28.70;99.90
20459;DHT22;10388;52.314;7.938;2023-09-07T13:02:11;28.80;99.90
20459;DHT22;10388;52.314;7.938;2023-09-07T13:04:42;28.80;99.90
20459;DHT22;10388;52.314;7.938;2023-09-07T13:07:12;28.70;99.90
20459;DHT22;10388;52.314;7.938;2023-09-07T13:09:43;28.60;99.90
20459;DHT22;10388;52.314;7.938;2023-09-07T13:12:15;28.70;99.90
20459;DHT22;10388;52.314;7.938;2023-09-07T13:14:45;28.80;99.90
20459;DHT22;10388;52.314;7.938;2023-09-07T13:17:18;28.80;99.90
20459;DHT22;10388;52.314;7.938;2023-09-07T13:19:48;28.70;99.90
20459;DHT22;10388;52.314;7.938;2023-09-07T13:22:19;28.80;99.90
20459;DHT22;10388;52.314;7.938;2023-09-07T13:24:49;28.70;99.90
20459;DHT22;10388;52.314;7.938;2023-09-07T13:27:20;28.70;99.90
20459;DHT22;10388;52.314;7.938;2023-09-07T13:29:50;28.70;99.90
20459;DHT22;10388;52.314;7.938;2023-09-07T13:32:21;28.70;99.90
20459;DHT22;10388;52.314;7.938;2023-09-07T13:34:51;28.60;99.90
20459;DHT22;10388;52.314;7.938;2023-09-07T13:37:22;28.70;99.90
20459;DHT22;10388;52.314;7.938;2023-09-07T13:39:52;28.70;99.90
20459;DHT22;10388;52.314;7.938;2023-09-07T13:42:25;28.80;99.90
20459;DHT22;10388;52.314;7.938;2023-09-07T13:44:56;28.70;99.90
20459;DHT22;10388;52.314;7.938;2023-09-07T13:47:27;28.70;99.90
20459;DHT22;10388;52.314;7.938;2023-09-07T13:49:57;28.70;99.90
20459;DHT22;10388;52.314;7.938;2023-09-07T13:52:28;28.70;99.90
20459;DHT22;10388;52.314;7.938;2023-09-07T13:54:58;28.60;99.90
20459;DHT22;10388;52.314;7.938;2023-09-07T13:57:29;28.60;99.90
20459;DHT22;10388;52.314;7.938;2023-09-07T13:59:59;28.50;99.90
20459;DHT22;10388;52.314;7.938;2023-09-07T14:02:30;28.50;99.90
20459;DHT22;10388;52.314;7.938;2023-09-07T14:05:02;28.50;99.90
20459;DHT22;10388;52.314;7.938;2023-09-07T14:07:34;28.50;99.90
20459;DHT22;10388;52.314;7.938;2023-09-07T14:10:05;28.50;99.90
20459;DHT22;10388;52.314;7.938;2023-09-07T14:12:35;28.50;99.90
20459;DHT22;10388;52.314;7.938;2023-09-07T14:15:06;28.50;99.90
20459;DHT22;10388;52.314;7.938;2023-09-07T14:17:37;28.60;99.90
20459;DHT22;10388;52.314;7.938;2023-09-07T14:20:08;28.40;99.90
20459;DHT22;10388;52.314;7.938;2023-09-07T14:22:39;28.40;99.90
20459;DHT22;10388;52.314;7.938;2023-09-07T14:25:09;28.50;99.90
20459;DHT22;10388;52.314;7.938;2023-09-07T14:27:40;28.50;99.90
20459;DHT22;10388;52.314;7.938;2023-09-07T14:30:11;28.40;99.90
20459;DHT22;10388;52.314;7.938;2023-09-07T14:32:42;28.50;99.90
20459;DHT22;10388;52.314;7.938;2023-09-07T14:35:13;28.40;99.90
20459;DHT22;10388;52.314;7.938;2023-09-07T14:37:43;28.40;99.90
20459;DHT22;10388;52.314;7.938;2023-09-07T14:40:14;28.40;99.90
20459;DHT22;10388;52.314;7.938;2023-09-07T14:42:44;28.40;99.90
20459;DHT22;10388;52.314;7.938;2023-09-07T14:45:15;28.40;99.90
20459;DHT22;10388;52.314;7.938;2023-09-07T14:47:45;28.50;99.90
20459;DHT22;10388;52.314;7.938;2023-09-07T14:50:16;28.40;99.90
20459;DHT22;10388;52.314;7.938;2023-09-07T14:52:46;28.40;99.90
20459;DHT22;10388;52.314;7.938;2023-09-07T14:55:17;28.30;99.90
20459;DHT22;10388;52.314;7.938;2023-09-07T14:57:48;28.20;99.90
20459;DHT22;10388;52.314;7.938;2023-09-07T15:00:19;28.20;99.90
20459;DHT22;10388;52.314;7.938;2023-09-07T15:02:49;28.20;99.90
20459;DHT22;10388;52.314;7.938;2023-09-07T15:05:20;28.20;99.90
20459;DHT22;10388;52.314;7.938;2023-09-07T15:07:50;28.10;99.90
20459;DHT22;10388;52.314;7.938;2023-09-07T15:10:21;28.10;99.90
20459;DHT22;10388;52.314;7.938;2023-09-07T15:12:51;28.10;99.90
20459;DHT22;10388;52.314;7.938;2023-09-07T15:15:22;28.10;99.90
20459;DHT22;10388;52.314;7.938;2023-09-07T15:17:53;28.00;99.90
20459;DHT22;10388;52.314;7.938;2023-09-07T15:20:23;28.00;99.90
20459;DHT22;10388;52.314;7.938;2023-09-07T15:22:54;28.00;99.90
20459;DHT22;10388;52.314;7.938;2023-09-07T15:25:25;28.10;99.90
20459;DHT22;10388;52.314;7.938;2023-09-07T15:27:56;28.00;99.90
20459;DHT22;10388;52.314;7.938;2023-09-07T15:30:27;27.90;99.90
20459;DHT22;10388;52.314;7.938;2023-09-07T15:32:58;27.90;99.90
20459;DHT22;10388;52.314;7.938;2023-09-07T15:35:28;27.80;99.90
20459;DHT22;10388;52.314;7.938;2023-09-07T15:37:59;27.80;99.90
20459;DHT22;10388;52.314;7.938;2023-09-07T15:40:30;27.90;99.90
20459;DHT22;10388;52.314;7.938;2023-09-07T15:43:00;27.80;99.90
20459;DHT22;10388;52.314;7.938;2023-09-07T15:45:31;27.80;99.90
20459;DHT22;10388;52.314;7.938;2023-09-07T15:48:01;27.80;99.90
20459;DHT22;10388;52.314;7.938;2023-09-07T15:50:32;27.80;99.90
20459;DHT22;10388;52.314;7.938;2023-09-07T15:53:04;27.80;99.90
20459;DHT22;10388;52.314;7.938;2023-09-07T15:55:34;27.70;99.90
20459;DHT22;10388;52.314;7.938;2023-09-07T15:58:05;27.60;99.90
20459;DHT22;10388;52.314;7.938;2023-09-07T16:00:35;27.60;99.90
20459;DHT22;10388;52.314;7.938;2023-09-07T16:03:07;27.60;99.90
20459;DHT22;10388;52.314;7.938;2023-09-07T16:05:38;27.60;99.90
20459;DHT22;10388;52.314;7.938;2023-09-07T16:08:09;27.50;99.90
20459;DHT22;10388;52.314;7.938;2023-09-07T16:10:39;27.40;99.90
20459;DHT22;10388;52.314;7.938;2023-09-07T16:13:10;27.40;99.90
20459;DHT22;10388;52.314;7.938;2023-09-07T16:15:40;27.40;99.90
20459;DHT22;10388;52.314;7.938;2023-09-07T16:18:11;27.20;99.90
20459;DHT22;10388;52.314;7.938;2023-09-07T16:20:43;27.30;99.90
20459;DHT22;10388;52.314;7.938;2023-09-07T16:23:15;27.30;99.90
20459;DHT22;10388;52.314;7.938;2023-09-07T16:25:46;27.10;99.90
20459;DHT22;10388;52.314;7.938;2023-09-07T16:28:17;27.10;99.90
20459;DHT22;10388;52.314;7.938;2023-09-07T16:30:50;27.10;99.90
20459;DHT22;10388;52.314;7.938;2023-09-07T16:33:21;27.10;99.90
20459;DHT22;10388;52.314;7.938;2023-09-07T16:35:51;27.00;99.90
20459;DHT22;10388;52.314;7.938;2023-09-07T16:38:22;26.90;99.90
20459;DHT22;10388;52.314;7.938;2023-09-07T16:40:53;26.80;99.90
20459;DHT22;10388;52.314;7.938;2023-09-07T16:43:23;26.80;99.90
20459;DHT22;10388;52.314;7.938;2023-09-07T16:45:58;26.80;99.90
20459;DHT22;10388;52.314;7.938;2023-09-07T16:48:29;26.90;99.90
20459;DHT22;10388;52.314;7.938;2023-09-07T16:51:00;26.70;99.90
20459;DHT22;10388;52.314;7.938;2023-09-07T16:53:30;26.70;99.90
20459;DHT22;10388;52.314;7.938;2023-09-07T16:56:01;26.80;99.90
20459;DHT22;10388;52.314;7.938;2023-09-07T16:58:32;26.80;99.90
20459;DHT22;10388;52.314;7.938;2023-09-07T17:01:05;26.70;99.90
20459;DHT22;10388;52.314;7.938;2023-09-07T17:03:36;26.60;99.90
20459;DHT22;10388;52.314;7.938;2023-09-07T17:06:06;26.40;99.90
20459;DHT22;10388;52.314;7.938;2023-09-07T17:08:37;26.40;99.90
20459;DHT22;10388;52.314;7.938;2023-09-07T17:11:07;26.30;99.90
20459;DHT22;10388;52.314;7.938;2023-09-07T17:13:38;26.30;99.90
20459;DHT22;10388;52.314;7.938;2023-09-07T17:16:08;26.30;99.90
20459;DHT22;10388;52.314;7.938;2023-09-07T17:18:39;26.20;99.90
20459;DHT22;10388;52.314;7.938;2023-09-07T17:21:11;26.20;99.90
20459;DHT22;10388;52.314;7.938;2023-09-07T17:23:42;26.00;99.90
20459;DHT22;10388;52.314;7.938;2023-09-07T17:26:12;25.90;99.90
20459;DHT22;10388;52.314;7.938;2023-09-07T17:28:43;25.80;99.90
20459;DHT22;10388;52.314;7.938;2023-09-07T17:31:14;25.70;99.90
20459;DHT22;10388;52.314;7.938;2023-09-07T17:33:48;25.70;99.90
20459;DHT22;10388;52.314;7.938;2023-09-07T17:36:19;25.70;99.90
20459;DHT22;10388;52.314;7.938;2023-09-07T17:38:50;25.60;99.90
20459;DHT22;10388;52.314;7.938;2023-09-07T17:41:26;25.50;99.90
20459;DHT22;10388;52.314;7.938;2023-09-07T17:43:57;25.60;99.90
20459;DHT22;10388;52.314;7.938;2023-09-07T17:46:27;25.50;99.90
20459;DHT22;10388;52.314;7.938;2023-09-07T17:49:00;25.40;99.90
20459;DHT22;10388;52.314;7.938;2023-09-07T17:51:32;25.40;99.90
20459;DHT22;10388;52.314;7.938;2023-09-07T17:54:03;25.20;99.90
20459;DHT22;10388;52.314;7.938;2023-09-07T17:56:33;25.10;99.90
20459;DHT22;10388;52.314;7.938;2023-09-07T17:59:04;25.00;99.90
20459;DHT22;10388;52.314;7.938;2023-09-07T18:01:34;25.00;99.90
20459;DHT22;10388;52.314;7.938;2023-09-07T18:04:05;25.00;99.90
20459;DHT22;10388;52.314;7.938;2023-09-07T18:06:35;24.90;99.90
20459;DHT22;10388;52.314;7.938;2023-09-07T18:09:06;24.80;99.90
20459;DHT22;10388;52.314;7.938;2023-09-07T18:11:37;24.80;99.90
20459;DHT22;10388;52.314;7.938;2023-09-07T18:14:07;24.70;99.90
20459;DHT22;10388;52.314;7.938;2023-09-07T18:16:38;24.50;99.90
20459;DHT22;10388;52.314;7.938;2023-09-07T18:19:08;24.50;99.90
20459;DHT22;10388;52.314;7.938;2023-09-07T18:21:39;24.40;99.90
20459;DHT22;10388;52.314;7.938;2023-09-07T18:24:10;24.50;99.90
20459;DHT22;10388;52.314;7.938;2023-09-07T18:26:40;24.40;99.90
20459;DHT22;10388;52.314;7.938;2023-09-07T18:29:17;24.40;99.90
20459;DHT22;10388;52.314;7.938;2023-09-07T18:31:47;24.30;99.90
20459;DHT22;10388;52.314;7.938;2023-09-07T18:34:18;24.30;99.90
20459;DHT22;10388;52.314;7.938;2023-09-07T18:36:48;24.30;99.90
20459;DHT22;10388;52.314;7.938;2023-09-07T18:39:19;24.20;99.90
20459;DHT22;10388;52.314;7.938;2023-09-07T18:41:50;24.10;99.90
20459;DHT22;10388;52.314;7.938;2023-09-07T18:44:22;24.10;99.90
20459;DHT22;10388;52.314;7.938;2023-09-07T18:46:53;24.10;99.90
20459;DHT22;10388;52.314;7.938;2023-09-07T18:49:24;24.00;99.90
20459;DHT22;10388;52.314;7.938;2023-09-07T18:51:54;24.00;99.90
20459;DHT22;10388;52.314;7.938;2023-09-07T18:54:25;23.90;99.90
20459;DHT22;10388;52.314;7.938;2023-09-07T18:56:55;23.80;99.90
20459;DHT22;10388;52.314;7.938;2023-09-07T18:59:26;23.80;99.90
20459;DHT22;10388;52.314;7.938;2023-09-07T19:01:56;23.70;99.90
20459;DHT22;10388;52.314;7.938;2023-09-07T19:04:27;23.60;99.90
20459;DHT22;10388;52.314;7.938;2023-09-07T19:07:02;23.50;99.90
20459;DHT22;10388;52.314;7.938;2023-09-07T19:09:32;23.30;99.90
20459;DHT22;10388;52.314;7.938;2023-09-07T19:12:03;23.20;99.90
20459;DHT22;10388;52.314;7.938;2023-09-07T19:14:33;23.20;99.90
20459;DHT22;10388;52.314;7.938;2023-09-07T19:17:04;23.20;99.90
20459;DHT22;10388;52.314;7.938;2023-09-07T19:19:34;23.20;99.90
20459;DHT22;10388;52.314;7.938;2023-09-07T19:22:05;23.00;99.90
20459;DHT22;10388;52.314;7.938;2023-09-07T19:24:35;23.00;99.90